createdAt,value
2023-05-18T00:00:29.775Z,5.60
2023-05-18T00:03:17.748Z,7.90
2023-05-18T00:05:51.437Z,5.10
2023-05-18T00:08:25.127Z,6.40
2023-05-18T00:11:04.520Z,7.30
2023-05-18T00:13:46.414Z,5.30
2023-05-18T00:16:16.040Z,6.50
2023-05-18T00:18:56.313Z,5.20
2023-05-18T00:21:30.415Z,6.40
2023-05-18T00:24:04.331Z,6.30
2023-05-18T00:26:37.947Z,7.10
2023-05-18T00:29:30.674Z,5.90
2023-05-18T00:32:20.859Z,6.30
2023-05-18T00:35:12.578Z,6.60
2023-05-18T00:37:53.188Z,8.60
2023-05-18T00:43:16.827Z,7.60
2023-05-18T00:46:16.100Z,7.90
2023-05-18T00:49:24.519Z,7.60
2023-05-18T00:52:01.259Z,6.70
2023-05-18T00:54:35.740Z,6.00
2023-05-18T00:57:24.506Z,7.20
2023-05-18T01:00:10.547Z,8.30
2023-05-18T01:02:42.408Z,7.70
2023-05-18T01:05:35.532Z,6.30
2023-05-18T01:08:05.793Z,5.70
2023-05-18T01:11:03.852Z,6.80
2023-05-18T01:16:38.051Z,7.00
2023-05-18T01:20:06.825Z,6.70
2023-05-18T01:23:10.326Z,6.20
2023-05-18T01:26:03.498Z,6.10
2023-05-18T01:28:46.164Z,7.10
2023-05-18T01:31:28.083Z,5.70
2023-05-18T01:34:02.041Z,4.90
2023-05-18T01:36:46.611Z,8.70
2023-05-18T01:39:19.843Z,4.80
2023-05-18T01:42:15.591Z,9.30
2023-05-18T01:45:18.488Z,7.70
2023-05-18T01:48:13.397Z,8.80
2023-05-18T01:50:57.984Z,6.30
2023-05-18T01:53:47.170Z,6.10
2023-05-18T01:57:08.044Z,8.60
2023-05-18T01:59:42.493Z,6.70
2023-05-18T02:02:53.582Z,8.00
2023-05-18T02:05:39.920Z,7.70
2023-05-18T02:08:35.269Z,5.10
2023-05-18T02:11:46.391Z,6.00
2023-05-18T02:14:52.458Z,7.70
2023-05-18T02:17:43.088Z,7.40
2023-05-18T02:20:33.997Z,6.80
2023-05-18T02:23:33.076Z,6.40
2023-05-18T02:26:27.189Z,6.90
2023-05-18T02:29:14.253Z,6.90
2023-05-18T02:32:16.752Z,5.70
2023-05-18T02:35:02.256Z,7.20
2023-05-18T02:37:55.418Z,8.20
2023-05-18T02:40:52.526Z,5.70
2023-05-18T02:43:38.192Z,5.90
2023-05-18T02:46:20.787Z,7.20
2023-05-18T02:49:08.969Z,7.30
2023-05-18T02:52:06.710Z,6.60
2023-05-18T02:55:24.767Z,5.90
2023-05-18T02:58:14.876Z,6.60
2023-05-18T03:00:57.315Z,5.50
2023-05-18T03:03:51.441Z,7.30
2023-05-18T03:06:34.171Z,6.30
2023-05-18T03:09:15.749Z,8.10
2023-05-18T03:12:00.152Z,7.10
2023-05-18T03:15:00.215Z,6.60
2023-05-18T03:17:38.040Z,4.90
2023-05-18T03:20:35.756Z,10.30
2023-05-18T03:23:26.676Z,6.90
2023-05-18T03:26:41.798Z,8.50
2023-05-18T03:29:35.965Z,6.80
2023-05-18T03:32:38.546Z,6.10
2023-05-18T03:35:37.323Z,7.10
2023-05-18T03:38:15.387Z,6.50
2023-05-18T03:41:03.763Z,7.40
2023-05-18T03:43:41.801Z,9.50
2023-05-18T03:46:35.668Z,7.60
2023-05-18T03:49:33.753Z,8.50
2023-05-18T03:54:50.050Z,8.20
2023-05-18T03:57:42.426Z,6.80
2023-05-18T04:00:33.677Z,8.40
2023-05-18T04:03:17.936Z,7.30
2023-05-18T04:05:58.016Z,9.30
2023-05-18T04:08:31.462Z,5.70
2023-05-18T04:11:06.507Z,7.70
2023-05-18T04:13:51.027Z,6.40
2023-05-18T04:16:43.845Z,8.30
2023-05-18T04:19:30.627Z,5.80
2023-05-18T04:22:29.172Z,7.90
2023-05-18T04:25:03.047Z,7.90
2023-05-18T04:27:53.894Z,7.40
2023-05-18T04:30:31.069Z,7.30
2023-05-18T04:33:13.161Z,5.70
2023-05-18T04:35:46.246Z,6.80
2023-05-18T04:38:25.375Z,7.00
2023-05-18T04:41:01.236Z,9.00
2023-05-18T04:43:42.728Z,7.50
2023-05-18T04:46:38.553Z,7.00
2023-05-18T04:49:18.863Z,9.90
2023-05-18T04:51:46.747Z,6.80
2023-05-18T04:54:24.954Z,6.80
2023-05-18T04:57:08.638Z,7.00
2023-05-18T04:59:58.829Z,6.60
2023-05-18T05:02:42.840Z,5.80
2023-05-18T05:05:36.442Z,7.80
2023-05-18T05:08:06.326Z,8.10
2023-05-18T05:10:33.958Z,6.40
2023-05-18T05:13:13.939Z,6.30
2023-05-18T05:16:06.717Z,7.00
2023-05-18T05:18:51.125Z,6.10
2023-05-18T05:21:41.238Z,7.80
2023-05-18T05:24:14.337Z,5.60
2023-05-18T05:27:04.897Z,4.40
2023-05-18T05:29:42.856Z,7.30
2023-05-18T05:32:36.834Z,5.50
2023-05-18T05:35:35.907Z,8.60
2023-05-18T05:38:23.936Z,4.40
2023-05-18T05:40:57.186Z,7.60
2023-05-18T05:43:37.463Z,6.90
2023-05-18T05:46:08.546Z,5.80
2023-05-18T05:48:36.082Z,7.40
2023-05-18T05:51:03.991Z,5.00
2023-05-18T05:53:34.497Z,5.40
2023-05-18T05:56:05.005Z,4.90
2023-05-18T05:58:35.648Z,6.10
2023-05-18T06:01:04.103Z,7.20
2023-05-18T06:03:40.230Z,6.20
2023-05-18T06:06:08.411Z,5.50
2023-05-18T06:08:38.747Z,5.30
2023-05-18T06:11:08.763Z,7.50
2023-05-18T06:13:40.809Z,6.30
2023-05-18T06:16:08.426Z,6.60
2023-05-18T06:18:36.355Z,5.20
2023-05-18T06:21:03.967Z,7.20
2023-05-18T06:23:44.690Z,5.60
2023-05-18T06:26:12.426Z,6.40
2023-05-18T06:28:49.715Z,5.50
2023-05-18T06:31:20.835Z,5.50
2023-05-18T06:33:48.872Z,5.50
2023-05-18T06:36:20.096Z,5.20
2023-05-18T06:38:48.018Z,5.70
2023-05-18T06:41:15.930Z,5.90
2023-05-18T06:43:43.719Z,5.20
2023-05-18T06:46:22.361Z,5.60
2023-05-18T06:48:50.141Z,5.50
2023-05-18T06:51:20.469Z,5.80
2023-05-18T06:54:25.413Z,5.00
2023-05-18T06:57:02.208Z,7.70
2023-05-18T06:59:42.044Z,6.80
2023-05-18T07:02:12.682Z,5.30
2023-05-18T07:04:42.968Z,5.70
2023-05-18T07:07:31.507Z,8.00
2023-05-18T07:09:59.587Z,8.50
2023-05-18T07:12:28.388Z,8.00
2023-05-18T07:14:56.242Z,7.70
2023-05-18T07:17:24.211Z,7.80
2023-05-18T07:19:51.932Z,5.50
2023-05-18T07:22:19.525Z,7.20
2023-05-18T07:24:47.349Z,6.60
2023-05-18T07:27:15.649Z,7.90
2023-05-18T07:29:43.130Z,13.70
2023-05-18T07:32:10.836Z,92.90
2023-05-18T07:34:38.476Z,80.30
2023-05-18T07:37:06.114Z,55.50
2023-05-18T07:39:33.663Z,75.30
2023-05-18T07:42:02.300Z,93.70
2023-05-18T07:44:29.962Z,23.00
2023-05-18T07:46:58.321Z,15.90
2023-05-18T07:49:26.129Z,29.60
2023-05-18T07:51:53.636Z,46.30
2023-05-18T07:54:21.677Z,27.80
2023-05-18T07:56:49.325Z,9.30
2023-05-18T07:59:17.028Z,14.40
2023-05-18T08:01:48.895Z,10.70
2023-05-18T08:04:16.938Z,7.60
2023-05-18T08:06:44.450Z,9.50
2023-05-18T08:09:12.419Z,7.90
2023-05-18T08:11:40.010Z,6.90
2023-05-18T08:14:07.728Z,7.30
2023-05-18T08:16:37.364Z,7.10
2023-05-18T08:19:05.091Z,8.40
2023-05-18T08:21:33.030Z,8.70
2023-05-18T08:24:02.058Z,6.60
2023-05-18T08:26:29.826Z,7.20
2023-05-18T08:28:57.344Z,5.70
2023-05-18T08:31:24.888Z,7.20
2023-05-18T08:33:52.680Z,10.50
2023-05-18T08:36:20.901Z,7.00
2023-05-18T08:38:48.527Z,9.00
2023-05-18T08:41:28.166Z,7.80
2023-05-18T08:44:06.668Z,8.20
2023-05-18T08:46:37.710Z,9.00
2023-05-18T08:49:06.111Z,7.50
2023-05-18T08:54:05.842Z,9.80
2023-05-18T08:56:34.334Z,10.30
2023-05-18T08:59:08.463Z,10.00
2023-05-18T09:01:43.116Z,8.50
2023-05-18T09:04:12.490Z,14.90
2023-05-18T09:06:43.749Z,11.90
2023-05-18T09:09:13.118Z,11.10
2023-05-18T09:11:41.958Z,11.70
2023-05-18T09:14:22.807Z,10.60
2023-05-18T09:16:50.948Z,11.50
2023-05-18T09:19:21.301Z,6.20
2023-05-18T09:21:49.454Z,7.60
2023-05-18T09:24:19.311Z,7.30
2023-05-18T09:26:46.950Z,6.10
2023-05-18T09:29:20.082Z,4.90
2023-05-18T09:31:50.399Z,5.40
2023-05-18T09:34:20.890Z,5.40
2023-05-18T09:36:56.813Z,7.80
2023-05-18T09:39:37.538Z,12.20
2023-05-18T09:42:05.518Z,12.00
2023-05-18T09:44:36.937Z,6.90
2023-05-18T09:47:10.325Z,8.10
2023-05-18T09:49:37.939Z,10.50
2023-05-18T09:52:09.024Z,12.50
2023-05-18T09:54:37.656Z,8.70
2023-05-18T09:59:36.876Z,8.70
2023-05-18T10:02:05.737Z,7.30
2023-05-18T10:04:43.835Z,8.90
2023-05-18T10:07:16.598Z,6.60
2023-05-18T10:09:46.209Z,6.90
2023-05-18T10:12:16.480Z,7.80
2023-05-18T10:14:46.040Z,7.30
2023-05-18T10:17:16.775Z,17.50
2023-05-18T10:19:55.715Z,9.60
2023-05-18T10:22:28.595Z,10.70
2023-05-18T10:24:58.666Z,9.70
2023-05-18T10:27:28.378Z,13.70
2023-05-18T10:29:59.395Z,19.00
2023-05-18T10:32:29.433Z,6.80
2023-05-18T10:34:57.243Z,6.80
2023-05-18T10:37:30.707Z,7.10
2023-05-18T10:40:00.666Z,10.40
2023-05-18T10:42:31.520Z,8.90
2023-05-18T10:45:01.402Z,7.80
2023-05-18T10:47:39.300Z,5.70
2023-05-18T10:50:09.441Z,8.10
2023-05-18T10:52:38.397Z,5.70
2023-05-18T10:55:12.659Z,8.10
2023-05-18T11:00:10.600Z,8.10
2023-05-18T11:02:42.252Z,9.00
2023-05-18T11:05:11.856Z,7.60
2023-05-18T11:07:39.782Z,9.20
2023-05-18T11:10:14.183Z,16.30
2023-05-18T11:12:44.860Z,9.60
2023-05-18T11:15:12.686Z,11.30
2023-05-18T11:17:43.581Z,15.40
2023-05-18T11:20:13.150Z,9.60
2023-05-18T11:22:46.799Z,9.80
2023-05-18T11:25:41.435Z,7.20
2023-05-18T11:28:11.450Z,6.30
2023-05-18T11:30:48.108Z,7.20
2023-05-18T11:33:26.377Z,9.40
2023-05-18T11:36:11.459Z,9.80
2023-05-18T11:39:06.980Z,8.70
2023-05-18T11:41:39.095Z,5.90
2023-05-18T11:44:14.890Z,5.50
2023-05-18T11:46:56.396Z,9.30
2023-05-18T11:49:47.668Z,7.60
2023-05-18T11:52:23.466Z,5.10
2023-05-18T11:54:59.069Z,7.90
2023-05-18T11:57:48.115Z,6.90
2023-05-18T12:00:17.050Z,4.80
2023-05-18T12:02:46.768Z,5.90
2023-05-18T12:05:15.715Z,35.10
2023-05-18T12:07:44.425Z,17.00
2023-05-18T12:10:14.600Z,6.40
2023-05-18T12:12:43.826Z,6.60
2023-05-18T12:15:11.938Z,6.50
2023-05-18T12:17:47.567Z,4.40
2023-05-18T12:20:28.362Z,16.90
2023-05-18T12:22:56.754Z,5.60
2023-05-18T12:25:26.651Z,8.00
2023-05-18T12:27:55.093Z,8.00
2023-05-18T12:32:53.841Z,4.30
2023-05-18T12:35:26.877Z,4.90
2023-05-18T12:37:55.696Z,4.90
2023-05-18T12:40:23.749Z,5.10
2023-05-18T12:42:56.496Z,7.70
2023-05-18T12:45:32.177Z,6.10
2023-05-18T12:48:07.896Z,7.20
2023-05-18T12:50:37.175Z,5.30
2023-05-18T12:53:04.867Z,4.40
2023-05-18T12:55:32.928Z,6.80
2023-05-18T12:58:19.477Z,4.80
2023-05-18T13:00:48.933Z,6.70
2023-05-18T13:03:24.158Z,5.50
2023-05-18T13:06:05.916Z,4.80
2023-05-18T13:08:35.319Z,5.20
2023-05-18T13:11:12.820Z,4.70
2023-05-18T13:14:03.074Z,7.30
2023-05-18T13:16:33.045Z,5.30
2023-05-18T13:19:04.973Z,7.90
2023-05-18T13:21:34.159Z,4.60
2023-05-18T13:24:02.965Z,7.70
2023-05-18T13:26:31.352Z,10.90
2023-05-18T13:31:29.318Z,9.90
2023-05-18T13:33:57.099Z,5.40
2023-05-18T13:36:25.757Z,5.50
2023-05-18T13:38:53.887Z,6.00
2023-05-18T13:41:21.718Z,5.50
2023-05-18T13:43:49.359Z,5.30
2023-05-18T13:46:18.484Z,6.50
2023-05-18T13:48:46.310Z,4.90
2023-05-18T13:51:13.821Z,5.70
2023-05-18T13:53:41.421Z,4.10
2023-05-18T13:56:09.811Z,5.50
2023-05-18T14:01:07.700Z,4.70
2023-05-18T14:03:36.261Z,4.70
2023-05-18T14:06:04.105Z,4.10
2023-05-18T14:08:31.884Z,5.10
2023-05-18T14:10:59.422Z,5.10
2023-05-18T14:13:27.098Z,5.40
2023-05-18T14:15:54.731Z,6.80
2023-05-18T14:18:22.326Z,3.90
2023-05-18T14:20:49.981Z,5.50
2023-05-18T14:23:17.512Z,5.20
2023-05-18T14:25:45.751Z,4.80
2023-05-18T14:28:13.283Z,5.30
2023-05-18T14:30:41.077Z,6.00
2023-05-18T14:33:08.781Z,7.30
2023-05-18T14:35:36.569Z,8.80
2023-05-18T14:38:04.252Z,5.20
2023-05-18T14:40:34.493Z,4.30
2023-05-18T14:43:02.214Z,4.90
2023-05-18T14:45:29.772Z,5.10
2023-05-18T14:47:57.476Z,4.00
2023-05-18T14:50:25.397Z,6.20
2023-05-18T14:52:54.525Z,6.50
2023-05-18T14:55:22.049Z,5.10
2023-05-18T14:57:49.750Z,4.30
2023-05-18T15:00:17.505Z,4.00
2023-05-18T15:02:56.331Z,6.10
2023-05-18T15:05:24.036Z,5.10
2023-05-18T15:07:51.880Z,3.50
2023-05-18T15:10:20.982Z,4.70
2023-05-18T15:12:51.702Z,4.40
2023-05-18T15:15:19.328Z,5.30
2023-05-18T15:17:47.969Z,4.60
2023-05-18T15:20:15.608Z,4.40
2023-05-18T15:22:43.244Z,4.60
2023-05-18T15:25:10.893Z,4.20
2023-05-18T15:27:38.567Z,5.80
2023-05-18T15:30:11.354Z,4.50
2023-05-18T15:32:39.722Z,6.50
2023-05-18T15:35:07.599Z,4.90
2023-05-18T15:37:35.542Z,4.50
2023-05-18T15:40:03.947Z,4.50
2023-05-18T15:42:33.662Z,4.10
2023-05-18T15:45:02.742Z,6.50
2023-05-18T15:47:31.152Z,4.10
2023-05-18T15:52:26.040Z,6.00
2023-05-18T15:54:53.472Z,4.00
2023-05-18T15:57:22.151Z,6.10
2023-05-18T15:59:49.593Z,4.50
2023-05-18T16:02:17.233Z,4.50
2023-05-18T16:04:45.168Z,4.90
2023-05-18T16:07:14.773Z,4.30
2023-05-18T16:09:42.220Z,5.20
2023-05-18T16:12:09.860Z,4.10
2023-05-18T16:14:37.507Z,4.80
2023-05-18T16:17:05.120Z,4.90
2023-05-18T16:19:33.895Z,8.70
2023-05-18T16:22:01.456Z,4.30
2023-05-18T16:24:28.927Z,4.70
2023-05-18T16:26:56.747Z,5.40
2023-05-18T16:29:24.293Z,5.00
2023-05-18T16:31:52.031Z,4.90
2023-05-18T16:34:20.110Z,4.10
2023-05-18T16:36:47.624Z,4.70
2023-05-18T16:39:15.049Z,5.00
2023-05-18T16:41:42.552Z,4.60
2023-05-18T16:44:10.117Z,5.30
2023-05-18T16:46:37.632Z,4.30
2023-05-18T16:49:05.643Z,5.60
2023-05-18T16:51:33.200Z,4.80
2023-05-18T16:54:00.905Z,4.70
2023-05-18T16:56:29.528Z,5.10
2023-05-18T16:58:57.176Z,4.10
2023-05-18T17:01:29.218Z,5.80
2023-05-18T17:03:57.420Z,4.40
2023-05-18T17:06:26.587Z,5.00
2023-05-18T17:08:57.770Z,4.20
2023-05-18T17:11:27.248Z,5.00
2023-05-18T17:13:55.552Z,4.90
2023-05-18T17:16:26.007Z,6.30
2023-05-18T17:18:54.818Z,7.40
2023-05-18T17:21:23.628Z,5.30
2023-05-18T17:23:51.358Z,5.50
2023-05-18T17:26:19.784Z,5.60
2023-05-18T17:31:14.690Z,8.50
2023-05-18T17:33:46.790Z,5.90
2023-05-18T17:36:18.015Z,4.30
2023-05-18T17:38:46.615Z,7.00
2023-05-18T17:41:14.343Z,5.70
2023-05-18T17:43:42.828Z,6.10
2023-05-18T17:48:37.993Z,5.40
2023-05-18T17:51:05.656Z,5.50
2023-05-18T17:53:33.864Z,5.80
2023-05-18T17:56:01.593Z,7.90
2023-05-18T17:58:29.525Z,8.40
2023-05-18T18:00:57.217Z,7.40
2023-05-18T18:03:25.925Z,6.20
2023-05-18T18:05:56.276Z,8.20
2023-05-18T18:08:24.886Z,8.40
2023-05-18T18:10:52.535Z,5.60
2023-05-18T18:13:20.770Z,8.40
2023-05-18T18:15:54.833Z,9.00
2023-05-18T18:18:25.079Z,7.40
2023-05-18T18:20:52.868Z,7.80
2023-05-18T18:23:29.759Z,9.20
2023-05-18T18:26:01.894Z,7.80
2023-05-18T18:28:30.028Z,5.30
2023-05-18T18:31:03.608Z,5.90
2023-05-18T18:33:34.398Z,7.80
2023-05-18T18:36:09.900Z,6.10
2023-05-18T18:38:42.872Z,6.60
2023-05-18T18:41:16.894Z,5.80
2023-05-18T18:43:58.072Z,4.80
2023-05-18T18:46:28.777Z,5.70
2023-05-18T18:49:00.152Z,5.00
2023-05-18T18:51:34.183Z,7.30
2023-05-18T18:54:15.552Z,6.90
2023-05-18T18:56:59.855Z,5.60
2023-05-18T18:59:51.765Z,5.30
2023-05-18T19:02:22.195Z,65.70
2023-05-18T19:04:53.419Z,16.60
2023-05-18T19:07:32.879Z,5.80
2023-05-18T19:10:26.553Z,6.70
2023-05-18T19:12:59.608Z,12.00
2023-05-18T19:15:38.146Z,4.80
2023-05-18T19:18:16.106Z,8.10
2023-05-18T19:20:49.038Z,6.90
2023-05-18T19:23:17.000Z,8.20
2023-05-18T19:25:54.423Z,7.60
2023-05-18T19:28:25.433Z,6.70
2023-05-18T19:31:09.889Z,8.00
2023-05-18T19:33:49.869Z,6.70
2023-05-18T19:36:25.728Z,7.40
2023-05-18T19:39:06.412Z,4.60
2023-05-18T19:42:03.425Z,6.50
2023-05-18T19:44:56.720Z,6.10
2023-05-18T19:47:24.918Z,7.80
2023-05-18T19:49:52.790Z,6.30
2023-05-18T19:52:33.084Z,6.80
2023-05-18T19:55:03.864Z,7.30
2023-05-18T19:57:34.861Z,7.20
2023-05-18T20:00:10.819Z,5.70
2023-05-18T20:02:40.960Z,5.90
2023-05-18T20:05:12.236Z,6.20
2023-05-18T20:07:42.496Z,7.00
2023-05-18T20:10:26.667Z,6.80
2023-05-18T20:12:59.977Z,5.10
2023-05-18T20:15:29.946Z,4.80
2023-05-18T20:18:06.932Z,7.60
2023-05-18T20:20:38.435Z,6.40
2023-05-18T20:23:21.578Z,7.00
2023-05-18T20:25:54.518Z,8.00
2023-05-18T20:28:34.111Z,6.20
2023-05-18T20:31:07.552Z,8.50
2023-05-18T20:33:35.367Z,5.90
2023-05-18T20:36:14.481Z,5.90
2023-05-18T20:38:44.448Z,7.40
2023-05-18T20:41:14.696Z,10.10
2023-05-18T20:43:48.128Z,8.20
2023-05-18T20:46:17.064Z,7.40
2023-05-18T20:48:50.759Z,8.20
2023-05-18T20:51:20.431Z,8.20
2023-05-18T20:53:55.684Z,5.50
2023-05-18T20:56:31.236Z,8.30
2023-05-18T20:59:04.178Z,6.70
2023-05-18T21:04:12.788Z,7.30
2023-05-18T21:09:14.768Z,8.20
2023-05-18T21:11:51.567Z,10.10
2023-05-18T21:14:29.676Z,8.10
2023-05-18T21:16:57.485Z,6.90
2023-05-18T21:19:28.411Z,8.10
2023-05-18T21:22:07.619Z,8.00
2023-05-18T21:25:05.888Z,7.70
2023-05-18T21:27:42.760Z,9.20
2023-05-18T21:30:17.703Z,7.90
2023-05-18T21:33:25.521Z,8.70
2023-05-18T21:36:09.689Z,7.70
2023-05-18T21:38:52.167Z,10.20
2023-05-18T21:42:00.192Z,9.10
2023-05-18T21:45:03.410Z,8.30
2023-05-18T21:47:40.954Z,5.90
2023-05-18T21:50:27.873Z,5.80
2023-05-18T21:53:21.394Z,8.90
2023-05-18T21:55:55.394Z,7.30
2023-05-18T21:58:41.444Z,9.30
2023-05-18T22:01:23.633Z,8.40
2023-05-18T22:04:24.708Z,7.90
2023-05-18T22:07:01.583Z,10.00
2023-05-18T22:09:39.144Z,7.90
2023-05-18T22:12:13.508Z,6.40
2023-05-18T22:15:12.493Z,6.60
2023-05-18T22:17:56.654Z,6.10
2023-05-18T22:20:42.075Z,7.50
2023-05-18T22:23:31.478Z,7.30
2023-05-18T22:26:07.321Z,7.90
2023-05-18T22:28:54.706Z,10.30
2023-05-18T22:31:28.365Z,9.40
2023-05-18T22:34:07.248Z,8.20
2023-05-18T22:36:52.066Z,7.40
2023-05-18T22:39:36.717Z,9.30
2023-05-18T22:42:47.643Z,9.10
2023-05-18T22:45:28.012Z,7.60
2023-05-18T22:48:27.390Z,9.10
2023-05-18T22:51:04.354Z,5.80
2023-05-18T22:53:55.871Z,6.90
2023-05-18T22:56:32.039Z,8.80
2023-05-18T22:59:26.557Z,7.10
2023-05-18T23:02:06.659Z,7.60
2023-05-18T23:04:40.414Z,8.10
2023-05-18T23:07:32.073Z,7.10
2023-05-18T23:10:44.889Z,8.90
2023-05-18T23:13:44.669Z,7.40
2023-05-18T23:16:30.735Z,7.50
2023-05-18T23:19:18.208Z,7.70
2023-05-18T23:22:04.387Z,5.50
2023-05-18T23:27:39.341Z,7.80
2023-05-18T23:30:32.342Z,7.60
2023-05-18T23:33:13.864Z,6.80
2023-05-18T23:36:08.659Z,8.30
2023-05-18T23:38:55.298Z,7.50
2023-05-18T23:41:51.180Z,6.60
2023-05-18T23:44:36.339Z,7.80
2023-05-18T23:47:07.678Z,5.90
2023-05-18T23:50:02.102Z,6.70
2023-05-18T23:52:41.971Z,9.50
2023-05-18T23:55:34.330Z,9.40
2023-05-18T23:58:18.087Z,8.10
